createdAt,value
2017-02-28T00:00:15.754Z,0
2017-02-28T00:01:16.191Z,0
2017-02-28T00:02:16.178Z,0
2017-02-28T00:03:16.242Z,0
2017-02-28T00:04:16.224Z,0
2017-02-28T00:05:16.239Z,0
2017-02-28T00:06:16.273Z,0
2017-02-28T00:07:16.406Z,0
2017-02-28T00:08:16.441Z,0
2017-02-28T00:09:16.448Z,0
2017-02-28T00:10:16.459Z,0
2017-02-28T00:11:16.470Z,0
2017-02-28T00:12:16.474Z,0
2017-02-28T00:13:16.521Z,0
2017-02-28T00:14:16.481Z,0
2017-02-28T00:15:16.408Z,0
2017-02-28T00:16:16.442Z,0
2017-02-28T00:17:16.443Z,0
2017-02-28T00:18:16.468Z,0
2017-02-28T00:19:16.470Z,0
2017-02-28T00:20:16.507Z,0
2017-02-28T00:21:16.110Z,0
2017-02-28T00:22:16.534Z,0
2017-02-28T00:23:16.573Z,0
2017-02-28T00:24:16.565Z,0
2017-02-28T00:25:16.617Z,0
2017-02-28T00:26:16.225Z,0
2017-02-28T00:27:16.654Z,0
2017-02-28T00:28:16.632Z,0
2017-02-28T00:29:16.728Z,0
2017-02-28T00:30:16.277Z,0
2017-02-28T00:31:16.295Z,0
2017-02-28T00:32:16.742Z,0
2017-02-28T00:33:16.751Z,0
2017-02-28T00:34:16.763Z,0
2017-02-28T00:35:16.768Z,0
2017-02-28T00:36:16.780Z,0
2017-02-28T00:37:16.916Z,0
2017-02-28T00:38:16.923Z,0
2017-02-28T00:39:16.933Z,0
2017-02-28T00:40:16.941Z,0
2017-02-28T00:41:16.976Z,0
2017-02-28T00:42:16.871Z,0
2017-02-28T00:43:16.998Z,0
2017-02-28T00:44:16.900Z,0
2017-02-28T00:45:17.038Z,0
2017-02-28T00:46:17.007Z,0
2017-02-28T00:47:17.077Z,0
2017-02-28T00:48:17.080Z,0
2017-02-28T00:49:17.132Z,0
2017-02-28T00:50:16.619Z,0
2017-02-28T00:51:16.715Z,0
2017-02-28T00:52:16.633Z,0
2017-02-28T00:53:17.145Z,0
2017-02-28T00:54:17.233Z,0
2017-02-28T00:55:17.233Z,0
2017-02-28T00:56:16.705Z,0
2017-02-28T00:57:17.250Z,0
2017-02-28T00:58:17.249Z,0
2017-02-28T00:59:17.259Z,0
2017-02-28T01:00:16.888Z,0
2017-02-28T01:01:17.410Z,0
2017-02-28T01:02:17.423Z,0
2017-02-28T01:03:17.342Z,0
2017-02-28T01:04:17.434Z,0
2017-02-28T01:05:17.442Z,0
2017-02-28T01:06:16.935Z,0
2017-02-28T01:07:17.459Z,0
2017-02-28T01:08:16.980Z,0
2017-02-28T01:09:17.430Z,0
2017-02-28T01:10:17.416Z,0
2017-02-28T01:11:17.446Z,0
2017-02-28T01:12:17.458Z,0
2017-02-28T01:13:17.458Z,0
2017-02-28T01:14:17.467Z,0
2017-02-28T01:15:17.473Z,0
2017-02-28T01:16:17.483Z,0
2017-02-28T01:17:17.492Z,0
2017-02-28T01:18:17.499Z,0
2017-02-28T01:19:17.505Z,0
2017-02-28T01:20:17.203Z,0
2017-02-28T01:21:17.550Z,0
2017-02-28T01:22:17.348Z,0
2017-02-28T01:23:17.586Z,0
2017-02-28T01:24:17.619Z,0
2017-02-28T01:25:17.612Z,0
2017-02-28T01:26:17.626Z,0
2017-02-28T01:27:17.662Z,0
2017-02-28T01:28:17.661Z,0
2017-02-28T01:29:17.694Z,0
2017-02-28T01:30:17.688Z,0
2017-02-28T01:31:17.760Z,0
2017-02-28T01:32:17.750Z,0
2017-02-28T01:33:17.749Z,0
2017-02-28T01:34:17.758Z,0
2017-02-28T01:35:17.789Z,0
2017-02-28T01:36:17.808Z,0
2017-02-28T01:37:17.819Z,0
2017-02-28T01:38:17.809Z,0
2017-02-28T01:39:17.865Z,0
2017-02-28T01:40:17.851Z,0
2017-02-28T01:41:17.872Z,0
2017-02-28T01:42:17.899Z,0
2017-02-28T01:43:17.944Z,0
2017-02-28T01:44:17.927Z,0
2017-02-28T01:45:17.966Z,0
2017-02-28T01:46:17.972Z,0
2017-02-28T01:47:17.989Z,0
2017-02-28T01:48:17.998Z,0
2017-02-28T01:49:18.024Z,0
2017-02-28T01:50:17.252Z,0
2017-02-28T01:51:18.052Z,0
2017-02-28T01:52:17.277Z,0
2017-02-28T01:53:18.110Z,0
2017-02-28T01:54:18.102Z,0
2017-02-28T01:55:18.128Z,0
2017-02-28T01:56:18.125Z,0
2017-02-28T01:57:18.174Z,0
2017-02-28T01:58:18.174Z,0
2017-02-28T01:59:18.193Z,0
2017-02-28T02:00:17.814Z,0
2017-02-28T02:01:18.243Z,0
2017-02-28T02:02:18.258Z,0
2017-02-28T02:03:18.275Z,0
2017-02-28T02:04:18.279Z,0
2017-02-28T02:05:18.310Z,0
2017-02-28T02:06:18.304Z,0
2017-02-28T02:07:18.333Z,0
2017-02-28T02:08:18.353Z,0
2017-02-28T02:09:18.403Z,0
2017-02-28T02:10:18.368Z,0
2017-02-28T02:11:18.422Z,0
2017-02-28T02:12:18.400Z,0
2017-02-28T02:13:18.044Z,0
2017-02-28T02:14:18.442Z,0
2017-02-28T02:15:18.494Z,0
2017-02-28T02:16:18.459Z,0
2017-02-28T02:17:18.118Z,0
2017-02-28T02:18:18.516Z,0
2017-02-28T02:19:18.549Z,0
2017-02-28T02:20:18.142Z,0
2017-02-28T02:21:18.604Z,0
2017-02-28T02:22:18.572Z,0
2017-02-28T02:23:18.614Z,0
2017-02-28T02:24:18.603Z,0
2017-02-28T02:25:18.656Z,0
2017-02-28T02:26:18.258Z,0
2017-02-28T02:27:18.674Z,0
2017-02-28T02:28:18.681Z,0
2017-02-28T02:29:18.312Z,0
2017-02-28T02:30:18.747Z,0
2017-02-28T02:31:18.726Z,0
2017-02-28T02:32:18.746Z,0
2017-02-28T02:33:18.773Z,0
2017-02-28T02:34:18.795Z,0
2017-02-28T02:35:18.818Z,0
2017-02-28T02:36:18.804Z,0
2017-02-28T02:37:18.847Z,0
2017-02-28T02:38:18.842Z,0
2017-02-28T02:39:18.882Z,0
2017-02-28T02:40:18.877Z,0
2017-02-28T02:41:18.945Z,0
2017-02-28T02:42:18.921Z,0
2017-02-28T02:43:18.943Z,0
2017-02-28T02:44:18.968Z,0
2017-02-28T02:45:18.993Z,0
2017-02-28T02:46:18.974Z,0
2017-02-28T02:47:19.048Z,0
2017-02-28T02:48:19.016Z,0
2017-02-28T02:49:19.057Z,0
2017-02-28T02:50:19.041Z,0
2017-02-28T02:51:19.092Z,0
2017-02-28T02:52:19.090Z,0
2017-02-28T02:53:18.786Z,0
2017-02-28T02:54:19.260Z,0
2017-02-28T02:55:18.912Z,0
2017-02-28T02:56:19.315Z,0
2017-02-28T02:57:19.300Z,0
2017-02-28T02:58:19.273Z,0
2017-02-28T02:59:19.298Z,0
2017-02-28T03:00:19.305Z,0
2017-02-28T03:01:19.274Z,0
2017-02-28T03:02:19.245Z,0
2017-02-28T03:03:19.305Z,0
2017-02-28T03:04:19.298Z,0
2017-02-28T03:05:19.323Z,0
2017-02-28T03:06:19.327Z,0
2017-02-28T03:07:19.374Z,0
2017-02-28T03:08:19.358Z,0
2017-02-28T03:09:19.399Z,0
2017-02-28T03:10:19.395Z,0
2017-02-28T03:11:19.050Z,0
2017-02-28T03:12:19.426Z,0
2017-02-28T03:13:19.460Z,0
2017-02-28T03:14:19.448Z,0
2017-02-28T03:15:19.593Z,0
2017-02-28T03:16:19.593Z,0
2017-02-28T03:17:19.236Z,0
2017-02-28T03:18:19.460Z,0
2017-02-28T03:19:19.770Z,0
2017-02-28T03:20:19.776Z,0
2017-02-28T03:21:19.788Z,0
2017-02-28T03:22:19.795Z,0
2017-02-28T03:23:19.600Z,0
2017-02-28T03:24:19.616Z,0
2017-02-28T03:25:19.251Z,0
2017-02-28T03:26:19.659Z,0
2017-02-28T03:27:19.676Z,0
2017-02-28T03:28:19.704Z,0
2017-02-28T03:29:19.705Z,0
2017-02-28T03:30:19.728Z,0
2017-02-28T03:31:19.748Z,0
2017-02-28T03:32:19.766Z,0
2017-02-28T03:33:19.388Z,0
2017-02-28T03:34:19.782Z,0
2017-02-28T03:35:19.492Z,0
2017-02-28T03:36:19.882Z,0
2017-02-28T03:37:19.947Z,0
2017-02-28T03:38:19.996Z,0
2017-02-28T03:39:19.963Z,0
2017-02-28T03:40:19.975Z,0
2017-02-28T03:41:19.589Z,0
2017-02-28T03:42:20.018Z,0
2017-02-28T03:43:20.168Z,0
2017-02-28T03:44:19.644Z,0
2017-02-28T03:45:19.603Z,0
2017-02-28T03:46:20.010Z,0
2017-02-28T03:47:20.020Z,0
2017-02-28T03:48:20.030Z,0
2017-02-28T03:49:20.042Z,0
2017-02-28T03:50:19.662Z,0
2017-02-28T03:51:19.675Z,0
2017-02-28T03:52:20.097Z,0
2017-02-28T03:53:19.719Z,0
2017-02-28T03:54:20.146Z,0
2017-02-28T03:55:20.167Z,0
2017-02-28T03:56:20.151Z,0
2017-02-28T03:57:20.170Z,0
2017-02-28T03:58:20.190Z,0
2017-02-28T03:59:20.221Z,0
2017-02-28T04:00:20.219Z,0
2017-02-28T04:01:20.271Z,0
2017-02-28T04:02:20.267Z,0
2017-02-28T04:03:20.281Z,0
2017-02-28T04:04:20.298Z,0
2017-02-28T04:05:20.314Z,0
2017-02-28T04:06:20.321Z,0
2017-02-28T04:07:20.336Z,0
2017-02-28T04:08:19.973Z,0
2017-02-28T04:09:20.375Z,0
2017-02-28T04:10:20.000Z,0
2017-02-28T04:11:20.417Z,0
2017-02-28T04:12:19.624Z,0
2017-02-28T04:13:20.444Z,0
2017-02-28T04:14:20.475Z,0
2017-02-28T04:15:20.495Z,0
2017-02-28T04:16:20.723Z,0
2017-02-28T04:17:20.536Z,0
2017-02-28T04:18:20.531Z,0
2017-02-28T04:19:20.613Z,0
2017-02-28T04:20:20.578Z,0
2017-02-28T04:21:20.583Z,0
2017-02-28T04:22:20.337Z,0
2017-02-28T04:23:20.765Z,0
2017-02-28T04:24:20.338Z,0
2017-02-28T04:25:20.655Z,0
2017-02-28T04:26:20.688Z,0
2017-02-28T04:27:20.769Z,0
2017-02-28T04:28:20.781Z,0
2017-02-28T04:29:20.712Z,0
2017-02-28T04:30:20.731Z,0
2017-02-28T04:31:20.357Z,0
2017-02-28T04:32:20.891Z,0
2017-02-28T04:33:20.597Z,0
2017-02-28T04:34:20.969Z,0
2017-02-28T04:35:20.811Z,0
2017-02-28T04:36:20.823Z,0
2017-02-28T04:37:20.446Z,0
2017-02-28T04:38:20.860Z,0
2017-02-28T04:39:20.969Z,0
2017-02-28T04:40:21.022Z,0
2017-02-28T04:41:20.513Z,0
2017-02-28T04:42:20.969Z,0
2017-02-28T04:43:20.983Z,0
2017-02-28T04:44:20.984Z,0
2017-02-28T04:45:20.991Z,0
2017-02-28T04:46:20.605Z,0
2017-02-28T04:47:20.653Z,0
2017-02-28T04:48:20.261Z,0
2017-02-28T04:49:21.045Z,0
2017-02-28T04:50:20.672Z,0
2017-02-28T04:51:21.074Z,0
2017-02-28T04:52:21.091Z,0
2017-02-28T04:53:21.095Z,0
2017-02-28T04:54:20.815Z,0
2017-02-28T04:55:21.133Z,0
2017-02-28T04:56:21.153Z,0
2017-02-28T04:57:21.164Z,0
2017-02-28T04:58:21.365Z,0
2017-02-28T04:59:21.204Z,0
2017-02-28T05:00:21.216Z,0
2017-02-28T05:01:20.840Z,0
2017-02-28T05:02:21.238Z,0
2017-02-28T05:03:21.267Z,0
2017-02-28T05:04:20.895Z,0
2017-02-28T05:05:21.314Z,0
2017-02-28T05:06:21.332Z,0
2017-02-28T05:07:20.533Z,0
2017-02-28T05:08:21.047Z,0
2017-02-28T05:09:21.382Z,0
2017-02-28T05:10:21.475Z,0
2017-02-28T05:11:21.113Z,0
2017-02-28T05:12:21.490Z,0
2017-02-28T05:13:21.098Z,0
2017-02-28T05:14:21.520Z,0
2017-02-28T05:15:21.111Z,0
2017-02-28T05:16:21.118Z,0
2017-02-28T05:17:21.103Z,0
2017-02-28T05:18:21.147Z,0
2017-02-28T05:19:21.552Z,0
2017-02-28T05:20:21.156Z,0
2017-02-28T05:21:21.607Z,0
2017-02-28T05:22:21.635Z,0
2017-02-28T05:23:21.641Z,0
2017-02-28T05:24:21.238Z,0
2017-02-28T05:25:21.651Z,0
2017-02-28T05:26:21.243Z,0
2017-02-28T05:27:21.268Z,0
2017-02-28T05:28:21.662Z,0
2017-02-28T05:29:21.740Z,0
2017-02-28T05:30:21.811Z,0
2017-02-28T05:31:21.425Z,0
2017-02-28T05:32:21.433Z,0
2017-02-28T05:33:21.980Z,0
2017-02-28T05:34:21.843Z,0
2017-02-28T05:35:22.006Z,0
2017-02-28T05:36:21.897Z,0
2017-02-28T05:37:22.013Z,0
2017-02-28T05:38:21.844Z,0
2017-02-28T05:39:21.834Z,0
2017-02-28T05:40:21.871Z,0
2017-02-28T05:41:21.872Z,0
2017-02-28T05:42:21.901Z,0
2017-02-28T05:43:21.892Z,0
2017-02-28T05:44:22.150Z,0
2017-02-28T05:45:22.107Z,0
2017-02-28T05:46:22.140Z,0
2017-02-28T05:47:22.126Z,0
2017-02-28T05:48:22.126Z,0
2017-02-28T05:49:21.760Z,0
2017-02-28T05:50:21.744Z,0
2017-02-28T05:51:21.748Z,0
2017-02-28T05:52:21.758Z,0
2017-02-28T05:53:21.673Z,0
2017-02-28T05:54:21.701Z,0
2017-02-28T05:55:22.215Z,0
2017-02-28T05:56:22.178Z,0
2017-02-28T05:57:22.159Z,0
2017-02-28T05:58:21.871Z,0
2017-02-28T05:59:22.251Z,0
2017-02-28T06:00:22.205Z,0
2017-02-28T06:01:21.797Z,0
2017-02-28T06:02:21.813Z,0
2017-02-28T06:03:22.391Z,0
2017-02-28T06:04:22.244Z,0
2017-02-28T06:05:22.049Z,0
2017-02-28T06:06:21.870Z,0
2017-02-28T06:07:22.280Z,0
2017-02-28T06:08:22.331Z,0
2017-02-28T06:09:22.328Z,0
2017-02-28T06:10:22.334Z,0
2017-02-28T06:11:22.055Z,0
2017-02-28T06:12:22.560Z,0
2017-02-28T06:13:21.987Z,0
2017-02-28T06:14:22.408Z,0
2017-02-28T06:15:22.039Z,0
2017-02-28T06:16:22.546Z,0
2017-02-28T06:17:22.556Z,0
2017-02-28T06:18:22.580Z,0
2017-02-28T06:19:22.072Z,0
2017-02-28T06:20:22.504Z,0
2017-02-28T06:21:22.102Z,0
2017-02-28T06:22:22.225Z,0
2017-02-28T06:23:22.662Z,0
2017-02-28T06:24:22.171Z,0
2017-02-28T06:25:22.687Z,0
2017-02-28T06:26:22.693Z,0
2017-02-28T06:27:22.678Z,0
2017-02-28T06:28:22.213Z,0
2017-02-28T06:29:22.742Z,0
2017-02-28T06:30:22.764Z,0
2017-02-28T06:31:22.697Z,0
2017-02-28T06:32:22.286Z,0
2017-02-28T06:33:22.754Z,0
2017-02-28T06:34:22.906Z,0
2017-02-28T06:35:22.720Z,0
2017-02-28T06:36:22.487Z,0
2017-02-28T06:37:22.847Z,0
2017-02-28T06:38:22.891Z,0
2017-02-28T06:39:22.876Z,0
2017-02-28T06:40:23.005Z,0
2017-02-28T06:41:22.551Z,0
2017-02-28T06:42:22.833Z,0
2017-02-28T06:43:22.852Z,0
2017-02-28T06:44:22.582Z,0
2017-02-28T06:45:22.892Z,0
2017-02-28T06:46:22.937Z,0
2017-02-28T06:47:23.032Z,0
2017-02-28T06:48:22.930Z,0
2017-02-28T06:49:22.574Z,0
2017-02-28T06:50:23.052Z,0
2017-02-28T06:51:22.974Z,0
2017-02-28T06:52:23.100Z,0
2017-02-28T06:53:23.020Z,0
2017-02-28T06:54:22.740Z,0
2017-02-28T06:55:23.033Z,0
2017-02-28T06:56:22.648Z,0
2017-02-28T06:57:22.679Z,0
2017-02-28T06:58:23.276Z,0
2017-02-28T06:59:22.783Z,0
2017-02-28T07:00:23.119Z,0
2017-02-28T07:01:23.149Z,0
2017-02-28T07:02:23.157Z,0
2017-02-28T07:03:22.960Z,0
2017-02-28T07:04:22.866Z,0
2017-02-28T07:05:22.912Z,0
2017-02-28T07:06:23.223Z,0
2017-02-28T07:07:22.827Z,0
2017-02-28T07:08:22.898Z,0
2017-02-28T07:09:23.246Z,0
2017-02-28T07:10:23.310Z,0
2017-02-28T07:11:23.286Z,0
2017-02-28T07:12:23.498Z,0
2017-02-28T07:13:23.416Z,0
2017-02-28T07:14:23.413Z,0
2017-02-28T07:15:22.936Z,0
2017-02-28T07:16:22.950Z,0
2017-02-28T07:17:22.979Z,0
2017-02-28T07:18:23.448Z,0
2017-02-28T07:19:22.657Z,0
2017-02-28T07:20:23.466Z,0
2017-02-28T07:21:23.465Z,0
2017-02-28T07:22:22.662Z,0
2017-02-28T07:23:23.522Z,0
2017-02-28T07:24:23.594Z,0
2017-02-28T07:25:23.608Z,0
2017-02-28T07:26:23.116Z,0
2017-02-28T07:27:23.607Z,5
2017-02-28T07:28:23.624Z,0
2017-02-28T07:29:23.275Z,0
2017-02-28T07:30:23.761Z,5
2017-02-28T07:31:23.282Z,5
2017-02-28T07:32:23.833Z,5
2017-02-28T07:33:23.764Z,5
2017-02-28T07:34:23.741Z,5
2017-02-28T07:35:23.836Z,5
2017-02-28T07:36:23.779Z,5
2017-02-28T07:37:23.687Z,5
2017-02-28T07:38:23.782Z,5
2017-02-28T07:39:23.855Z,5
2017-02-28T07:40:23.331Z,5
2017-02-28T07:41:23.751Z,5
2017-02-28T07:42:23.769Z,5
2017-02-28T07:43:23.769Z,5
2017-02-28T07:44:23.777Z,5
2017-02-28T07:45:23.819Z,5
2017-02-28T07:46:23.817Z,5
2017-02-28T07:47:23.832Z,5
2017-02-28T07:48:23.492Z,5
2017-02-28T07:49:23.871Z,5
2017-02-28T07:50:23.882Z,10
2017-02-28T07:51:23.938Z,10
2017-02-28T07:52:24.014Z,10
2017-02-28T07:53:23.926Z,10
2017-02-28T07:54:23.956Z,10
2017-02-28T07:55:23.660Z,5
2017-02-28T07:56:23.979Z,5
2017-02-28T07:57:23.978Z,10
2017-02-28T07:58:23.785Z,10
2017-02-28T07:59:24.131Z,10
2017-02-28T08:00:24.142Z,10
2017-02-28T08:01:24.154Z,10
2017-02-28T08:02:24.215Z,10
2017-02-28T08:03:24.260Z,10
2017-02-28T08:04:24.306Z,10
2017-02-28T08:05:24.099Z,10
2017-02-28T08:06:24.124Z,10
2017-02-28T08:07:24.150Z,10
2017-02-28T08:08:23.784Z,10
2017-02-28T08:09:24.279Z,10
2017-02-28T08:10:24.294Z,10
2017-02-28T08:11:24.310Z,10
2017-02-28T08:12:23.926Z,10
2017-02-28T08:13:23.865Z,10
2017-02-28T08:14:24.006Z,10
2017-02-28T08:15:23.892Z,10
2017-02-28T08:16:23.993Z,10
2017-02-28T08:17:23.915Z,10
2017-02-28T08:18:24.424Z,10
2017-02-28T08:19:24.430Z,10
2017-02-28T08:20:24.044Z,10
2017-02-28T08:21:23.955Z,10
2017-02-28T08:22:24.089Z,10
2017-02-28T08:23:24.401Z,10
2017-02-28T08:24:24.518Z,10
2017-02-28T08:25:24.466Z,10
2017-02-28T08:26:24.052Z,10
2017-02-28T08:27:24.458Z,10
2017-02-28T08:28:24.484Z,10
2017-02-28T08:29:24.538Z,10
2017-02-28T08:30:24.508Z,10
2017-02-28T08:31:24.694Z,10
2017-02-28T08:32:23.820Z,10
2017-02-28T08:33:24.620Z,10
2017-02-28T08:34:24.261Z,10
2017-02-28T08:35:24.578Z,10
2017-02-28T08:36:24.597Z,10
2017-02-28T08:37:24.682Z,10
2017-02-28T08:38:23.828Z,10
2017-02-28T08:39:24.637Z,10
2017-02-28T08:40:24.653Z,10
2017-02-28T08:41:24.010Z,10
2017-02-28T08:42:24.332Z,15
2017-02-28T08:43:24.689Z,15
2017-02-28T08:44:24.727Z,15
2017-02-28T08:45:24.727Z,15
2017-02-28T08:46:24.776Z,15
2017-02-28T08:47:24.075Z,15
2017-02-28T08:48:24.781Z,15
2017-02-28T08:49:24.403Z,15
2017-02-28T08:50:24.832Z,15
2017-02-28T08:51:24.837Z,15
2017-02-28T08:52:24.451Z,15
2017-02-28T08:53:24.852Z,10
2017-02-28T08:54:24.474Z,15
2017-02-28T08:55:24.975Z,15
2017-02-28T08:56:24.903Z,10
2017-02-28T08:57:24.229Z,15
2017-02-28T08:58:25.042Z,10
2017-02-28T08:59:25.050Z,5
2017-02-28T09:00:25.082Z,5
2017-02-28T09:01:25.025Z,5
2017-02-28T09:02:25.165Z,10
2017-02-28T09:03:24.723Z,10
2017-02-28T09:04:25.037Z,10
2017-02-28T09:05:24.758Z,10
2017-02-28T09:06:25.139Z,10
2017-02-28T09:07:25.200Z,10
2017-02-28T09:08:24.818Z,15
2017-02-28T09:09:24.851Z,15
2017-02-28T09:10:25.126Z,10
2017-02-28T09:11:25.180Z,10
2017-02-28T09:12:24.879Z,10
2017-02-28T09:13:25.198Z,15
2017-02-28T09:14:25.183Z,20
2017-02-28T09:15:24.425Z,20
2017-02-28T09:16:25.220Z,20
2017-02-28T09:17:25.265Z,20
2017-02-28T09:18:24.852Z,25
2017-02-28T09:19:24.868Z,25
2017-02-28T09:20:24.883Z,25
2017-02-28T09:21:25.285Z,25
2017-02-28T09:22:25.373Z,25
2017-02-28T09:23:25.332Z,25
2017-02-28T09:24:25.347Z,20
2017-02-28T09:25:25.358Z,20
2017-02-28T09:26:25.001Z,20
2017-02-28T09:27:25.396Z,20
2017-02-28T09:28:25.408Z,20
2017-02-28T09:29:25.440Z,20
2017-02-28T09:30:25.436Z,20
2017-02-28T09:31:25.456Z,15
2017-02-28T09:32:25.481Z,15
2017-02-28T09:33:25.100Z,20
2017-02-28T09:34:25.221Z,20
2017-02-28T09:35:25.512Z,20
2017-02-28T09:36:25.158Z,20
2017-02-28T09:37:25.586Z,20
2017-02-28T09:38:25.594Z,20
2017-02-28T09:39:25.594Z,20
2017-02-28T09:40:25.588Z,20
2017-02-28T09:41:25.618Z,15
2017-02-28T09:42:25.650Z,10
2017-02-28T09:43:25.657Z,15
2017-02-28T09:44:25.665Z,20
2017-02-28T09:45:25.691Z,20
2017-02-28T09:46:25.694Z,20
2017-02-28T09:47:25.709Z,25
2017-02-28T09:48:25.330Z,25
2017-02-28T09:49:25.466Z,20
2017-02-28T09:50:25.752Z,25
2017-02-28T09:51:25.370Z,25
2017-02-28T09:52:25.516Z,25
2017-02-28T09:53:25.835Z,25
2017-02-28T09:54:25.031Z,25
2017-02-28T09:55:25.856Z,25
2017-02-28T09:56:25.950Z,25
2017-02-28T09:57:25.950Z,25
2017-02-28T09:58:25.487Z,25
2017-02-28T09:59:25.563Z,25
2017-02-28T10:00:26.105Z,25
2017-02-28T10:01:26.115Z,20
2017-02-28T10:02:26.114Z,15
2017-02-28T10:03:26.263Z,10
2017-02-28T10:04:26.272Z,10
2017-02-28T10:05:26.280Z,10
2017-02-28T10:06:25.417Z,10
2017-02-28T10:07:26.148Z,5
2017-02-28T10:08:25.996Z,5
2017-02-28T10:09:25.841Z,5
2017-02-28T10:10:26.314Z,5
2017-02-28T10:11:26.323Z,5
2017-02-28T10:12:26.221Z,5
2017-02-28T10:13:26.468Z,5
2017-02-28T10:14:26.273Z,5
2017-02-28T10:15:26.270Z,10
2017-02-28T10:16:26.513Z,10
2017-02-28T10:17:26.192Z,5
2017-02-28T10:18:26.202Z,5
2017-02-28T10:19:26.235Z,5
2017-02-28T10:20:26.241Z,5
2017-02-28T10:21:26.273Z,5
2017-02-28T10:22:26.277Z,5
2017-02-28T10:23:26.295Z,5
2017-02-28T10:24:26.305Z,10
2017-02-28T10:25:26.305Z,10
2017-02-28T10:26:26.346Z,10
2017-02-28T10:27:26.354Z,5
2017-02-28T10:28:25.969Z,5
2017-02-28T10:29:26.392Z,5
2017-02-28T10:30:26.004Z,5
2017-02-28T10:31:26.433Z,10
2017-02-28T10:32:26.429Z,10
2017-02-28T10:33:26.446Z,10
2017-02-28T10:34:25.810Z,10
2017-02-28T10:35:26.084Z,10
2017-02-28T10:36:26.221Z,10
2017-02-28T10:37:26.634Z,10
2017-02-28T10:38:26.627Z,10
2017-02-28T10:39:26.639Z,10
2017-02-28T10:40:26.165Z,10
2017-02-28T10:41:25.794Z,10
2017-02-28T10:42:26.196Z,5
2017-02-28T10:43:26.611Z,10
2017-02-28T10:44:26.648Z,10
2017-02-28T10:45:26.646Z,10
2017-02-28T10:46:26.672Z,10
2017-02-28T10:47:26.684Z,10
2017-02-28T10:48:26.700Z,10
2017-02-28T10:49:26.715Z,10
2017-02-28T10:50:26.321Z,10
2017-02-28T10:51:26.351Z,10
2017-02-28T10:52:26.745Z,10
2017-02-28T10:53:26.370Z,10
2017-02-28T10:54:26.799Z,10
2017-02-28T10:55:26.797Z,10
2017-02-28T10:56:26.805Z,10
2017-02-28T10:57:26.429Z,15
2017-02-28T10:58:26.855Z,25
2017-02-28T10:59:26.859Z,30
2017-02-28T11:00:26.896Z,20
2017-02-28T11:01:26.919Z,20
2017-02-28T11:02:26.527Z,25
2017-02-28T11:03:26.938Z,20
2017-02-28T11:04:26.964Z,20
2017-02-28T11:05:26.989Z,25
2017-02-28T11:06:26.978Z,25
2017-02-28T11:07:27.001Z,30
2017-02-28T11:08:27.014Z,25
2017-02-28T11:09:27.053Z,25
2017-02-28T11:10:27.065Z,30
2017-02-28T11:11:27.149Z,25
2017-02-28T11:12:27.139Z,35
2017-02-28T11:13:27.177Z,20
2017-02-28T11:14:27.286Z,30
2017-02-28T11:15:27.330Z,25
2017-02-28T11:16:27.244Z,25
2017-02-28T11:17:27.282Z,20
2017-02-28T11:18:27.373Z,25
2017-02-28T11:19:26.533Z,25
2017-02-28T11:20:27.342Z,30
2017-02-28T11:21:27.332Z,30
2017-02-28T11:22:27.036Z,25
2017-02-28T11:23:27.343Z,25
2017-02-28T11:24:27.327Z,25
2017-02-28T11:25:27.338Z,20
2017-02-28T11:26:27.326Z,25
2017-02-28T11:27:27.400Z,30
2017-02-28T11:28:27.028Z,30
2017-02-28T11:29:27.028Z,30
2017-02-28T11:30:27.371Z,15
2017-02-28T11:31:27.381Z,20
2017-02-28T11:32:27.413Z,40
2017-02-28T11:33:27.435Z,30
2017-02-28T11:34:27.445Z,25
2017-02-28T11:35:27.072Z,25
2017-02-28T11:36:27.120Z,35
2017-02-28T11:37:27.494Z,25
2017-02-28T11:38:27.138Z,25
2017-02-28T11:39:27.137Z,20
2017-02-28T11:40:27.535Z,15
2017-02-28T11:41:27.558Z,10
2017-02-28T11:42:27.568Z,15
2017-02-28T11:43:27.303Z,15
2017-02-28T11:44:27.610Z,10
2017-02-28T11:45:27.627Z,10
2017-02-28T11:46:27.259Z,10
2017-02-28T11:47:27.769Z,10
2017-02-28T11:48:27.675Z,10
2017-02-28T11:49:27.307Z,10
2017-02-28T11:50:27.320Z,10
2017-02-28T11:51:27.730Z,10
2017-02-28T11:52:27.358Z,10
2017-02-28T11:53:27.749Z,10
2017-02-28T11:54:27.777Z,15
2017-02-28T11:55:27.978Z,20
2017-02-28T11:56:27.523Z,10
2017-02-28T11:57:27.917Z,10
2017-02-28T11:58:27.982Z,5
2017-02-28T11:59:27.861Z,10
2017-02-28T12:00:27.880Z,10
2017-02-28T12:01:27.888Z,10
2017-02-28T12:02:27.910Z,20
2017-02-28T12:03:27.521Z,30
2017-02-28T12:04:27.547Z,30
2017-02-28T12:05:27.970Z,25
2017-02-28T12:06:27.987Z,25
2017-02-28T12:07:27.599Z,15
2017-02-28T12:08:28.012Z,30
2017-02-28T12:09:28.013Z,30
2017-02-28T12:10:27.666Z,20
2017-02-28T12:11:28.068Z,25
2017-02-28T12:12:28.081Z,15
2017-02-28T12:13:28.088Z,20
2017-02-28T12:14:28.102Z,10
2017-02-28T12:15:28.138Z,10
2017-02-28T12:16:28.159Z,10
2017-02-28T12:17:28.167Z,10
2017-02-28T12:18:27.793Z,20
2017-02-28T12:19:27.398Z,20
2017-02-28T12:20:28.225Z,15
2017-02-28T12:21:28.229Z,10
2017-02-28T12:22:27.854Z,5
2017-02-28T12:23:28.263Z,5
2017-02-28T12:24:28.311Z,10
2017-02-28T12:25:28.293Z,10
2017-02-28T12:26:28.314Z,10
2017-02-28T12:27:28.339Z,10
2017-02-28T12:28:28.372Z,5
2017-02-28T12:29:28.372Z,5
2017-02-28T12:30:27.997Z,5
2017-02-28T12:31:28.025Z,10
2017-02-28T12:32:28.431Z,15
2017-02-28T12:33:28.433Z,10
2017-02-28T12:34:28.451Z,10
2017-02-28T12:35:28.460Z,20
2017-02-28T12:36:28.480Z,25
2017-02-28T12:37:28.514Z,15
2017-02-28T12:38:28.543Z,25
2017-02-28T12:39:28.535Z,25
2017-02-28T12:40:28.552Z,10
2017-02-28T12:41:28.578Z,20
2017-02-28T12:42:28.675Z,15
2017-02-28T12:43:28.705Z,10
2017-02-28T12:44:28.713Z,10
2017-02-28T12:45:28.655Z,10
2017-02-28T12:46:28.776Z,10
2017-02-28T12:47:28.782Z,10
2017-02-28T12:48:28.791Z,10
2017-02-28T12:49:28.938Z,10
2017-02-28T12:50:28.822Z,20
2017-02-28T12:51:28.945Z,10
2017-02-28T12:52:28.867Z,5
2017-02-28T12:53:28.858Z,5
2017-02-28T12:54:28.498Z,10
2017-02-28T12:55:28.518Z,10
2017-02-28T12:56:28.155Z,20
2017-02-28T12:57:28.979Z,15
2017-02-28T12:58:28.760Z,10
2017-02-28T12:59:28.603Z,10
2017-02-28T13:00:28.597Z,10
2017-02-28T13:01:28.598Z,10
2017-02-28T13:02:28.545Z,10
2017-02-28T13:03:29.182Z,5
2017-02-28T13:04:28.743Z,5
2017-02-28T13:05:28.749Z,5
2017-02-28T13:06:28.760Z,5
2017-02-28T13:07:28.759Z,5
2017-02-28T13:08:29.220Z,5
2017-02-28T13:09:28.777Z,10
2017-02-28T13:10:29.146Z,10
2017-02-28T13:11:28.757Z,5
2017-02-28T13:12:29.174Z,5
2017-02-28T13:13:29.213Z,10
2017-02-28T13:14:29.200Z,10
2017-02-28T13:15:29.195Z,5
2017-02-28T13:16:29.219Z,5
2017-02-28T13:17:28.923Z,5
2017-02-28T13:18:28.855Z,5
2017-02-28T13:19:29.230Z,5
2017-02-28T13:20:29.236Z,5
2017-02-28T13:21:29.259Z,5
2017-02-28T13:22:28.881Z,5
2017-02-28T13:23:29.284Z,5
2017-02-28T13:24:28.902Z,5
2017-02-28T13:25:29.319Z,5
2017-02-28T13:26:29.358Z,5
2017-02-28T13:27:29.348Z,5
2017-02-28T13:28:29.065Z,5
2017-02-28T13:29:29.502Z,5
2017-02-28T13:30:29.071Z,5
2017-02-28T13:31:29.424Z,10
2017-02-28T13:32:29.453Z,10
2017-02-28T13:33:29.456Z,10
2017-02-28T13:34:29.480Z,5
2017-02-28T13:35:29.512Z,5
2017-02-28T13:36:29.532Z,5
2017-02-28T13:37:29.540Z,5
2017-02-28T13:38:29.548Z,10
2017-02-28T13:39:29.581Z,10
2017-02-28T13:40:29.577Z,15
2017-02-28T13:41:29.607Z,15
2017-02-28T13:42:29.631Z,15
2017-02-28T13:43:29.650Z,10
2017-02-28T13:44:29.650Z,15
2017-02-28T13:45:29.284Z,15
2017-02-28T13:46:29.681Z,15
2017-02-28T13:47:29.810Z,15
2017-02-28T13:48:29.749Z,10
2017-02-28T13:49:29.881Z,10
2017-02-28T13:50:29.878Z,10
2017-02-28T13:51:29.882Z,10
2017-02-28T13:52:29.514Z,10
2017-02-28T13:53:29.841Z,10
2017-02-28T13:54:29.926Z,10
2017-02-28T13:55:29.931Z,10
2017-02-28T13:56:29.981Z,10
2017-02-28T13:57:29.612Z,10
2017-02-28T13:58:29.910Z,10
2017-02-28T13:59:30.030Z,10
2017-02-28T14:00:30.077Z,10
2017-02-28T14:01:29.970Z,10
2017-02-28T14:02:29.986Z,10
2017-02-28T14:03:29.998Z,10
2017-02-28T14:04:29.824Z,10
2017-02-28T14:05:30.020Z,10
2017-02-28T14:06:30.063Z,10
2017-02-28T14:07:30.111Z,10
2017-02-28T14:08:30.155Z,10
2017-02-28T14:09:30.308Z,10
2017-02-28T14:10:29.943Z,10
2017-02-28T14:11:30.353Z,10
2017-02-28T14:12:30.360Z,10
2017-02-28T14:13:29.882Z,10
2017-02-28T14:14:30.301Z,15
2017-02-28T14:15:30.418Z,10
2017-02-28T14:16:30.024Z,10
2017-02-28T14:17:30.394Z,15
2017-02-28T14:18:30.434Z,15
2017-02-28T14:19:30.442Z,15
2017-02-28T14:20:30.453Z,15
2017-02-28T14:21:30.460Z,15
2017-02-28T14:22:30.459Z,15
2017-02-28T14:23:30.021Z,15
2017-02-28T14:24:30.479Z,20
2017-02-28T14:25:30.475Z,20
2017-02-28T14:26:30.463Z,20
2017-02-28T14:27:30.446Z,20
2017-02-28T14:28:30.456Z,20
2017-02-28T14:29:30.127Z,20
2017-02-28T14:30:30.480Z,25
2017-02-28T14:31:30.727Z,20
2017-02-28T14:32:30.665Z,20
2017-02-28T14:33:30.600Z,15
2017-02-28T14:34:30.559Z,20